Time;durP1;ratioP1;P1;durP2;ratioP2;P2;SDS_P1;SDS_P2;PMS_P1;PMS_P2;Temp;Humidity;BMP_temperature;BMP_pressure;BME280_temperature;BME280_humidity;BME280_pressure;Samples;Min_cycle;Max_cycle;Signal;HPM_P1;HPM_P2
2022/01/25 00:09:22;;;;;;;10.03;4.78;;;;;;;3.22;87.16;102394.50;1678955;83;21522;-71
2022/01/25 00:30:00;;;;;;;8.00;4.37;;;;;;;3.05;87.12;102381.44;1686175;82;21071;-70
2022/01/25 00:32:42;;;;;;;11.38;4.55;;;;;;;3.03;87.11;102392.00;1669033;84;21029;-71
2022/01/25 00:35:26;;;;;;;7.87;4.58;;;;;;;3.00;87.13;102394.42;1689538;84;406200;-71
2022/01/25 00:38:11;;;;;;;8.28;4.12;;;;;;;3.00;87.13;102386.75;1695852;84;21452;-71
2022/01/25 00:40:56;;;;;;;11.28;4.67;;;;;;;2.99;87.15;102382.45;1675519;84;21124;-71
2022/01/25 00:43:41;;;;;;;5.50;2.92;;;;;;;2.97;87.16;102376.00;1706315;83;21069;-70
2022/01/25 00:46:26;;;;;;;7.37;3.63;;;;;;;2.97;87.14;102371.29;1683417;84;21235;-71
2022/01/25 00:49:14;;;;;;;6.25;3.40;;;;;;;2.95;87.16;102366.11;1685903;84;21069;-71
2022/01/25 00:52:04;;;;;;;10.43;4.80;;;;;;;2.96;87.20;102370.82;1702198;82;21060;-71
2022/01/25 00:54:44;;;;;;;8.33;4.60;;;;;;;2.95;87.17;102378.02;1668379;84;21051;-71
2022/01/25 00:57:29;;;;;;;10.45;5.35;;;;;;;2.94;87.20;102373.71;1661882;83;21088;-71
2022/01/25 01:00:15;;;;;;;4.50;3.15;;;;;;;2.93;87.19;102375.39;1682192;85;20914;-71
2022/01/25 01:02:59;;;;;;;3.45;2.80;;;;;;;2.95;87.20;102383.13;1685322;83;21060;-71
2022/01/25 01:05:45;;;;;;;3.42;3.12;;;;;;;2.95;87.20;102372.91;1686074;84;21028;-70
2022/01/25 01:08:29;;;;;;;3.35;3.10;;;;;;;2.94;87.20;102375.86;1671166;83;21581;-71
2022/01/25 01:11:21;;;;;;;4.00;3.20;;;;;;;2.94;87.22;102369.48;1678513;84;21120;-71
2022/01/25 01:14:17;;;;;;;3.50;2.87;;;;;;;2.94;87.23;102361.81;1710341;82;21032;-71
2022/01/25 01:32:22;;;;;;;5.58;3.65;;;;;;;2.94;87.20;102348.16;1669065;84;20941;-71
2022/01/25 01:37:57;;;;;;;7.47;4.55;;;;;;;2.93;87.23;102337.47;1668150;84;21077;-71
2022/01/25 01:43:32;;;;;;;5.25;4.08;;;;;;;2.89;87.19;102345.41;1682645;84;21403;-71
2022/01/25 01:46:29;;;;;;;8.60;5.20;;;;;;;2.89;87.25;102345.41;1686441;83;21110;-71
2022/01/25 01:49:06;;;;;;;6.85;4.80;;;;;;;2.90;87.29;102337.34;1667652;85;22242;-71
2022/01/25 01:51:50;;;;;;;7.80;5.92;;;;;;;2.90;87.25;102331.83;1685151;85;20937;-71
2022/01/25 01:54:35;;;;;;;12.43;7.60;;;;;;;2.89;87.24;102325.37;1716570;83;20922;-71
2022/01/25 01:57:19;;;;;;;12.23;7.45;;;;;;;2.88;87.19;102326.19;1631406;85;20953;-71
2022/01/25 02:00:06;;;;;;;14.10;7.67;;;;;;;2.86;87.23;102325.25;1690506;83;21289;-71
2022/01/25 02:02:51;;;;;;;11.25;6.90;;;;;;;2.86;87.27;102323.56;1716240;83;20898;-71
2022/01/25 02:05:36;;;;;;;15.32;8.08;;;;;;;2.86;87.24;102317.58;1671968;84;20937;-71
2022/01/25 02:08:21;;;;;;;10.88;7.25;;;;;;;2.87;87.26;102319.33;1687648;84;20930;-71
2022/01/25 02:11:06;;;;;;;17.40;8.45;;;;;;;2.85;87.23;102311.59;1702165;83;21426;-71
2022/01/25 02:13:51;;;;;;;12.10;8.67;;;;;;;2.84;87.25;102317.92;1669809;85;20953;-71
2022/01/25 02:22:34;;;;;;;10.32;8.70;;;;;;;2.80;87.25;102296.48;1714642;83;20974;-71
2022/01/25 02:25:19;;;;;;;11.57;9.05;;;;;;;2.81;87.31;102296.95;1684279;84;20981;-71
2022/01/25 02:28:04;;;;;;;12.33;10.00;;;;;;;2.81;87.29;102285.86;1700117;83;21037;-71
2022/01/25 02:30:50;;;;;;;8.47;7.57;;;;;;;2.80;87.29;102294.33;1695765;84;21481;-71
2022/01/25 02:33:36;;;;;;;9.75;7.92;;;;;;;2.81;87.31;102297.35;1687982;82;21360;-71
2022/01/25 02:36:27;;;;;;;10.75;7.45;;;;;;;2.80;87.31;102294.33;1676196;85;21036;-71
2022/01/25 02:39:11;;;;;;;8.28;6.45;;;;;;;2.80;87.30;102296.48;1702161;83;20993;-71
2022/01/25 02:41:56;;;;;;;8.40;6.55;;;;;;;2.80;87.31;102299.03;1682441;84;21062;-71
2022/01/25 02:44:43;;;;;;;8.50;7.17;;;;;;;2.81;87.30;102293.52;1687545;83;21116;-71
2022/01/25 02:50:31;;;;;;;8.20;6.92;;;;;;;2.80;87.26;102290.50;1705913;83;20998;-71
2022/01/25 02:53:16;;;;;;;12.35;7.10;;;;;;;2.80;87.34;102293.05;1687940;84;21131;-71
2022/01/25 02:56:01;;;;;;;10.58;7.70;;;;;;;2.79;87.32;102300.24;1694273;83;21053;-71
2022/01/25 02:58:46;;;;;;;10.60;9.05;;;;;;;2.80;87.36;102294.33;1679852;84;21135;-71
2022/01/25 03:01:31;;;;;;;10.03;8.28;;;;;;;2.80;87.33;102287.94;1687521;84;21053;-71
2022/01/25 03:04:20;;;;;;;9.38;8.03;;;;;;;2.78;87.32;102287.87;1678552;84;21056;-71
2022/01/25 03:07:05;;;;;;;9.60;8.10;;;;;;;2.79;87.35;102286.20;1707930;83;21771;-71
2022/01/25 03:09:54;;;;;;;11.83;8.40;;;;;;;2.78;87.27;102287.00;1677971;84;21127;-70
2022/01/25 03:12:45;;;;;;;11.97;8.70;;;;;;;2.76;87.33;102280.95;1599756;84;5000663;-71
2022/01/25 03:15:41;;;;;;;;;;;;;;;2.75;87.35;102272.83;1648349;87;20975;-71
2022/01/25 03:18:24;;;;;;;14.55;9.40;;;;;;;2.76;87.41;102274.57;1646428;85;20845;-70
2022/01/25 03:21:35;;;;;;;12.60;9.00;;;;;;;2.76;87.40;102284.78;1658999;85;21023;-70
2022/01/25 03:24:07;;;;;;;14.18;9.90;;;;;;;2.76;87.40;102277.13;1673406;85;20954;-70
2022/01/25 03:26:53;;;;;;;14.23;10.17;;;;;;;2.74;87.26;102283.84;1667460;85;21955;-70
2022/01/25 03:29:37;;;;;;;15.80;10.70;;;;;;;2.74;87.26;102283.84;1675489;85;21462;-70
2022/01/25 03:32:21;;;;;;;13.40;9.68;;;;;;;2.75;87.43;102286.88;1641441;86;20983;-70
2022/01/25 03:35:06;;;;;;;14.35;10.43;;;;;;;2.77;87.43;102290.36;1654031;85;21632;-70
2022/01/25 03:37:51;;;;;;;14.75;10.58;;;;;;;2.78;87.41;102289.56;1648132;85;21568;-70
2022/01/25 03:40:36;;;;;;;13.93;10.55;;;;;;;2.79;87.46;102290.03;1665649;85;21048;-70
2022/01/25 03:43:21;;;;;;;20.43;11.15;;;;;;;2.80;87.41;102287.94;1670403;85;21536;-70
2022/01/25 03:46:20;;;;;;;15.88;10.00;;;;;;;2.80;87.42;102289.22;1646672;85;21136;-70
2022/01/25 03:52:06;;;;;;;13.88;10.65;;;;;;;2.81;87.43;102284.58;1648348;85;20935;-70
2022/01/25 03:54:51;;;;;;;14.95;10.78;;;;;;;2.82;87.45;102285.05;1648849;85;20962;-70
2022/01/25 03:57:35;;;;;;;17.65;10.88;;;;;;;2.81;87.40;102285.45;1648864;85;20986;-70
2022/01/25 04:00:19;;;;;;;16.30;11.45;;;;;;;2.81;87.44;102286.73;1664951;85;21463;-71
2022/01/25 04:03:12;;;;;;;16.15;10.43;;;;;;;2.83;87.46;102274.02;1675523;85;20917;-71
2022/01/25 04:05:53;;;;;;;18.15;10.82;;;;;;;2.82;87.43;102262.06;1636624;84;21460;-71
2022/01/25 04:08:37;;;;;;;15.98;11.53;;;;;;;2.83;87.45;102268.51;1646878;86;20931;-71
2022/01/25 04:11:22;;;;;;;16.23;11.57;;;;;;;2.83;87.45;102268.91;1646169;85;21439;-71
2022/01/25 04:14:07;;;;;;;19.75;12.35;;;;;;;2.84;87.47;102271.94;1658503;85;20993;-71
2022/01/25 04:16:59;;;;;;;17.00;11.63;;;;;;;2.85;87.46;102267.30;1658729;85;20973;-71
2022/01/25 04:19:43;;;;;;;;;;;;;;;2.85;87.49;102263.06;1677954;85;20977;-71
2022/01/25 04:25:14;;;;;;;40.20;21.85;;;;;;;2.85;87.47;102266.02;1629888;87;21112;-71
2022/01/25 04:27:59;;;;;;;45.20;23.57;;;;;;;2.85;87.46;102254.52;1646720;85;21147;-71
2022/01/25 04:30:44;;;;;;;28.12;17.02;;;;;;;2.84;87.47;102247.67;1646248;85;21142;-71
2022/01/25 04:33:39;;;;;;;19.40;13.53;;;;;;;2.83;87.51;102241.69;1664110;85;21133;-71
2022/01/25 04:36:51;;;;;;;22.70;13.93;;;;;;;2.82;87.49;102237.39;1664741;85;21114;-71
2022/01/25 04:51:41;;;;;;;23.20;14.65;;;;;;;2.74;87.48;102222.14;1627282;86;21111;-71
2022/01/25 05:00:03;;;;;;;25.37;14.83;;;;;;;2.77;87.55;102223.95;1637121;86;21535;-71
2022/01/25 05:02:51;;;;;;;24.77;13.43;;;;;;;2.75;87.49;102220.06;1671725;84;21076;-71
2022/01/25 05:05:35;;;;;;;25.45;14.07;;;;;;;2.75;87.57;102214.95;1672010;85;21129;-71
2022/01/25 05:08:44;;;;;;;22.25;13.58;;;;;;;2.76;87.54;102211.99;1665632;84;21097;-71
2022/01/25 05:11:14;;;;;;;20.88;12.85;;;;;;;2.75;87.55;102216.63;1669496;85;21062;-71
2022/01/25 05:16:59;;;;;;;20.45;13.80;;;;;;;2.79;87.58;102227.45;1639521;87;21486;-71
2022/01/25 05:22:31;;;;;;;23.77;14.83;;;;;;;2.80;87.60;102208.75;1667918;84;21659;-71
2022/01/25 05:25:15;;;;;;;24.40;15.40;;;;;;;2.80;87.59;102211.31;1645628;85;21100;-71
2022/01/25 05:28:00;;;;;;;21.33;13.00;;;;;;;2.79;87.59;102212.99;1652497;85;21114;-71
2022/01/25 05:30:44;;;;;;;19.00;13.30;;;;;;;2.82;87.65;102213.52;1650658;84;21131;-71
2022/01/25 05:33:29;;;;;;;20.00;11.70;;;;;;;2.83;87.60;102215.27;1670179;84;21000;-71
2022/01/25 05:36:15;;;;;;;24.85;15.10;;;;;;;2.83;87.59;102221.66;1640192;87;22278;-71
2022/01/25 05:39:04;;;;;;;;;;;;;;;2.82;87.60;102223.34;1669032;85;21068;-71
2022/01/25 05:41:54;;;;;;;;;;;;;;;2.82;87.62;102218.23;1672864;85;20205;-71
2022/01/25 05:44:42;;;;;;;23.62;12.98;;;;;;;2.81;87.63;102209.22;1661902;85;20202;-70
2022/01/25 05:47:30;;;;;;;18.67;11.22;;;;;;;2.80;87.60;102208.35;1667641;85;21460;-70
2022/01/25 05:50:13;;;;;;;20.60;10.63;;;;;;;2.77;87.52;102221.00;1662054;84;20946;-71
2022/01/25 05:52:57;;;;;;;20.55;11.60;;;;;;;2.78;87.59;102213.80;1664354;85;21571;-71
2022/01/25 05:55:42;;;;;;;22.75;11.55;;;;;;;2.78;87.60;102209.09;1669312;85;21384;-71
2022/01/25 05:58:27;;;;;;;24.55;13.08;;;;;;;2.77;87.55;102218.84;1664682;85;20948;-71
2022/01/25 06:01:11;;;;;;;19.10;12.28;;;;;;;2.76;87.58;102225.63;1663554;84;21363;-71
2022/01/25 06:03:56;;;;;;;22.50;13.62;;;;;;;2.78;87.64;102218.03;1667568;85;20962;-71
2022/01/25 06:06:40;;;;;;;25.17;13.35;;;;;;;2.79;87.63;102211.72;1664515;85;21416;-71
2022/01/25 06:09:25;;;;;;;25.95;13.28;;;;;;;2.79;87.60;102213.39;1650930;85;20962;-71
2022/01/25 06:12:11;;;;;;;20.37;11.70;;;;;;;2.80;87.61;102211.31;1665340;85;21091;-71
2022/01/25 06:14:56;;;;;;;24.18;13.05;;;;;;;2.79;87.58;102218.50;1644444;85;28551;-71
2022/01/25 06:17:40;;;;;;;23.05;13.13;;;;;;;2.78;87.58;102219.31;1659765;85;21460;-71
2022/01/25 06:20:25;;;;;;;21.82;11.60;;;;;;;2.78;87.61;102212.52;1672066;85;21470;-71
2022/01/25 06:23:09;;;;;;;18.87;11.12;;;;;;;2.77;87.59;102220.13;1659789;86;20976;-71
2022/01/25 06:25:53;;;;;;;15.40;10.03;;;;;;;2.77;87.58;102221.00;1663009;85;21070;-71
2022/01/25 06:28:38;;;;;;;21.85;11.93;;;;;;;2.77;87.55;102213.73;1665878;84;21101;-71
2022/01/25 06:31:23;;;;;;;22.60;13.43;;;;;;;2.76;87.61;102211.59;1658516;84;21086;-71
2022/01/25 06:34:08;;;;;;;27.63;13.77;;;;;;;2.77;87.63;102207.35;1623893;86;21123;-71
2022/01/25 06:36:53;;;;;;;25.80;13.75;;;;;;;2.76;87.61;102208.16;1651946;85;21232;-71
2022/01/25 06:39:37;;;;;;;25.30;13.38;;;;;;;2.76;87.67;102212.86;1663812;85;21078;-70
2022/01/25 06:42:23;;;;;;;20.40;11.65;;;;;;;2.78;87.67;102210.38;1664153;85;21063;-71
2022/01/25 06:45:14;;;;;;;16.50;10.82;;;;;;;2.77;87.67;102208.22;1664858;85;21103;-71
2022/01/25 06:47:56;;;;;;;18.30;11.95;;;;;;;2.76;87.65;102213.27;1634575;86;21083;-71
2022/01/25 06:50:40;;;;;;;21.48;13.25;;;;;;;2.78;87.68;102221.46;1674477;85;21078;-71
2022/01/25 06:53:26;;;;;;;21.57;13.03;;;;;;;2.79;87.69;102216.82;1651049;86;21125;-71
2022/01/25 06:56:10;;;;;;;17.27;11.70;;;;;;;2.79;87.70;102222.34;1625979;86;21134;-70
2022/01/25 06:58:54;;;;;;;19.98;12.05;;;;;;;2.79;87.68;102226.17;1661249;85;21080;-71
2022/01/25 07:01:39;;;;;;;17.82;10.90;;;;;;;2.78;87.68;102230.41;1639944;86;21097;-70
2022/01/25 07:04:24;;;;;;;15.75;9.68;;;;;;;2.79;87.69;102231.27;1650025;86;21079;-71
2022/01/25 07:07:08;;;;;;;16.87;10.38;;;;;;;2.78;87.72;102231.69;1675924;83;21085;-71
2022/01/25 07:09:53;;;;;;;14.35;10.23;;;;;;;2.80;87.74;102233.02;1678461;82;21071;-71
2022/01/25 07:12:37;;;;;;;16.55;10.72;;;;;;;2.81;87.72;102234.36;1675659;83;21095;-70
2022/01/25 07:15:22;;;;;;;15.68;9.28;;;;;;;2.80;87.71;102229.19;1677974;83;21103;-71
2022/01/25 07:18:06;;;;;;;13.65;9.60;;;;;;;2.82;87.72;102221.19;1674794;85;21112;-72
2022/01/25 07:20:51;;;;;;;11.45;8.25;;;;;;;2.82;87.73;102214.80;1649694;85;21114;-71
2022/01/25 07:23:35;;;;;;;11.63;8.60;;;;;;;2.83;87.70;102213.59;1663889;83;21121;-72
2022/01/25 07:26:20;;;;;;;14.15;8.63;;;;;;;2.83;87.68;102221.66;1631270;86;21114;-71
2022/01/25 07:29:05;;;;;;;11.70;8.60;;;;;;;2.83;87.74;102215.27;1678637;83;21719;-71
2022/01/25 07:31:49;;;;;;;12.78;8.55;;;;;;;2.85;87.74;102212.38;1642250;85;21083;-71
2022/01/25 07:34:34;;;;;;;13.53;8.90;;;;;;;2.86;87.76;102211.16;1673936;83;22017;-70
2022/01/25 07:37:19;;;;;;;14.45;9.10;;;;;;;2.87;87.76;102203.96;1633018;85;21478;-69
2022/01/25 07:40:05;;;;;;;10.03;7.42;;;;;;;2.87;87.76;102212.91;1651158;86;21117;-69
2022/01/25 07:42:50;;;;;;;10.35;8.43;;;;;;;2.91;87.78;102213.90;1630337;85;21009;-69
2022/01/25 07:45:36;;;;;;;10.43;8.40;;;;;;;2.91;87.77;102218.61;1615709;87;20941;-69
2022/01/25 07:48:21;;;;;;;10.82;7.87;;;;;;;2.94;87.82;102222.56;1652904;86;21660;-69
2022/01/25 07:51:06;;;;;;;12.37;9.18;;;;;;;2.96;87.83;102217.11;1640637;87;21132;-69
2022/01/25 07:53:52;;;;;;;10.08;8.18;;;;;;;2.98;87.82;102215.49;1659533;86;21054;-69
2022/01/25 07:56:37;;;;;;;11.85;8.50;;;;;;;3.03;87.82;102213.53;1639553;85;21109;-69
2022/01/25 07:59:22;;;;;;;10.95;8.00;;;;;;;3.03;87.82;102213.53;1634368;86;21092;-69
2022/01/25 08:02:07;;;;;;;13.20;8.65;;;;;;;3.04;87.80;102205.05;1656883;84;21082;-69
2022/01/25 08:04:51;;;;;;;12.68;8.85;;;;;;;3.05;87.82;102205.52;1627361;85;21105;-69
2022/01/25 08:07:36;;;;;;;15.25;9.85;;;;;;;3.06;87.84;102204.30;1628705;87;21060;-69
2022/01/25 08:10:23;;;;;;;12.35;9.10;;;;;;;3.09;87.89;102197.16;1633146;87;21096;-69
2022/01/25 08:13:08;;;;;;;15.85;9.73;;;;;;;3.10;87.85;102184.85;1639238;85;21509;-69
2022/01/25 08:15:53;;;;;;;11.40;8.25;;;;;;;3.12;87.83;102183.23;1639110;85;20949;-69
2022/01/25 08:18:37;;;;;;;12.13;9.20;;;;;;;3.13;87.85;102182.39;1634412;87;20966;-69
2022/01/25 08:21:21;;;;;;;13.25;9.28;;;;;;;3.14;87.84;102191.39;1641513;85;20982;-69
2022/01/25 08:24:07;;;;;;;12.25;8.70;;;;;;;3.16;87.90;102187.62;1630561;86;20949;-69
2022/01/25 08:26:52;;;;;;;13.13;8.93;;;;;;;3.19;87.92;102177.11;1640600;85;21010;-69
2022/01/25 08:29:36;;;;;;;12.30;8.18;;;;;;;3.20;87.87;102177.58;1642433;85;21431;-69
2022/01/25 08:32:21;;;;;;;11.88;8.13;;;;;;;3.23;87.92;102175.14;1635762;86;20945;-69
2022/01/25 08:35:06;;;;;;;10.38;7.65;;;;;;;3.25;87.84;102177.34;1641475;84;21425;-70
2022/01/25 08:37:51;;;;;;;12.47;8.83;;;;;;;3.31;87.95;102180.14;1642464;86;21465;-70
2022/01/25 08:40:36;;;;;;;10.18;8.05;;;;;;;3.39;87.97;102185.95;1670623;84;21405;-70
2022/01/25 08:43:20;;;;;;;9.63;7.20;;;;;;;3.43;87.93;102191.66;1658244;86;20912;-70
2022/01/25 08:46:05;;;;;;;58.58;53.42;;;;;;;3.49;87.92;102188.92;1639626;86;20989;-70
2022/01/25 08:48:50;;;;;;;9.93;6.95;;;;;;;3.53;87.95;102189.51;1664140;85;20929;-70
2022/01/25 08:51:34;;;;;;;11.80;7.65;;;;;;;3.59;87.90;102183.75;1671330;84;21014;-70
2022/01/25 08:54:19;;;;;;;8.98;7.12;;;;;;;3.60;87.87;102174.86;1668290;85;20951;-70
2022/01/25 08:57:04;;;;;;;10.70;8.75;;;;;;;3.65;87.91;102169.88;1641288;87;21436;-70
2022/01/25 08:59:49;;;;;;;14.13;8.03;;;;;;;3.67;87.87;102173.38;1645338;85;21339;-70
2022/01/25 09:02:35;;;;;;;11.45;7.97;;;;;;;3.69;87.91;102173.02;1642653;85;20988;-70
2022/01/25 09:05:19;;;;;;;10.47;7.93;;;;;;;3.74;87.92;102182.14;1669650;84;20981;-70
2022/01/25 09:08:05;;;;;;;12.65;8.35;;;;;;;3.77;87.96;102183.13;1638304;86;20926;-70
2022/01/25 09:10:52;;;;;;;;;;;;;;;3.81;87.93;102186.67;1673316;84;21541;-70
2022/01/25 09:13:39;;;;;;;9.73;7.85;;;;;;;3.80;87.89;102175.56;1659281;83;20473;-72
2022/01/25 09:16:23;;;;;;;;;;;;;;;3.83;87.93;102168.41;1667142;85;21114;-69
2022/01/25 09:19:08;;;;;;;11.22;7.10;;;;;;;3.86;88.00;102162.13;1651313;86;20766;-69
2022/01/25 09:21:53;;;;;;;12.53;7.35;;;;;;;3.87;87.96;102166.02;1666161;85;21082;-70
2022/01/25 09:24:38;;;;;;;9.55;6.87;;;;;;;3.86;87.90;102166.84;1634448;85;21554;-71
2022/01/25 09:27:24;;;;;;;10.58;7.45;;;;;;;3.84;87.89;102163.34;1640580;85;21087;-70
2022/01/25 09:30:10;;;;;;;13.30;7.33;;;;;;;3.85;87.95;102166.78;1661988;84;21117;-69
2022/01/25 09:32:55;;;;;;;8.90;6.92;;;;;;;3.84;87.93;102163.34;1631319;86;21402;-70
2022/01/25 09:35:39;;;;;;;8.08;6.87;;;;;;;3.86;88.04;102157.01;1652394;84;21151;-70
2022/01/25 09:38:25;;;;;;;10.70;6.87;;;;;;;3.86;87.95;102162.13;1669963;84;21078;-69
2022/01/25 09:41:10;;;;;;;12.30;7.28;;;;;;;3.86;87.95;102158.28;1659789;84;21082;-69
2022/01/25 09:43:55;;;;;;;11.63;7.78;;;;;;;3.88;88.04;102160.08;1633632;87;21075;-69
2022/01/25 09:46:40;;;;;;;10.53;7.00;;;;;;;3.90;88.03;102153.34;1668173;84;21147;-70
2022/01/25 09:49:25;;;;;;;7.97;6.50;;;;;;;3.89;87.97;102152.88;1653255;86;21055;-70
2022/01/25 09:52:09;;;;;;;9.08;6.78;;;;;;;3.92;88.07;102146.59;1644975;85;21170;-69
2022/01/25 09:54:57;;;;;;;11.90;7.67;;;;;;;3.92;87.99;102143.16;1649471;85;21094;-70
2022/01/25 09:57:42;;;;;;;10.53;6.70;;;;;;;3.93;88.05;102147.45;1646112;86;21413;-71
2022/01/25 10:00:30;;;;;;;9.35;7.50;;;;;;;3.96;88.08;102141.17;1648578;86;21019;-68
2022/01/25 10:03:26;;;;;;;9.18;7.03;;;;;;;3.97;88.09;102141.22;1653717;86;21562;-69
2022/01/25 10:06:17;;;;;;;9.88;7.30;;;;;;;4.00;88.05;102145.58;1652605;86;21087;-69
2022/01/25 10:09:01;;;;;;;10.15;7.05;;;;;;;4.01;88.04;102147.32;1647253;86;20956;-68
2022/01/25 10:11:47;;;;;;;15.68;12.13;;;;;;;4.04;88.08;102148.70;1645443;86;20927;-68
2022/01/25 10:14:32;;;;;;;9.93;7.85;;;;;;;4.08;88.11;102138.17;1647697;86;20955;-69
2022/01/25 10:17:30;;;;;;;9.63;7.53;;;;;;;4.09;88.11;102139.50;1651602;83;20984;-69
2022/01/25 10:20:30;;;;;;;11.28;6.83;;;;;;;4.13;88.12;102149.44;1647152;86;20948;-68
2022/01/25 10:23:20;;;;;;;10.72;7.47;;;;;;;4.15;88.07;102147.80;1656028;85;20948;-69
2022/01/25 10:26:04;;;;;;;12.80;7.42;;;;;;;4.14;88.03;102149.49;1642563;86;21011;-69
2022/01/25 10:28:51;;;;;;;9.65;7.25;;;;;;;4.14;88.09;102140.53;1650158;85;21452;-68
2022/01/25 10:31:40;;;;;;;10.20;7.67;;;;;;;4.17;88.09;102143.17;1652882;86;20971;-70
2022/01/25 10:34:36;;;;;;;13.18;8.10;;;;;;;4.18;88.12;102142.34;1648381;85;21551;-70
2022/01/25 10:37:28;;;;;;;13.20;7.75;;;;;;;4.19;88.10;102145.78;1647669;85;21559;-70
2022/01/25 10:40:12;;;;;;;11.18;7.35;;;;;;;4.20;88.09;102136.88;1644790;86;20955;-70
2022/01/25 10:42:58;;;;;;;11.22;7.70;;;;;;;4.23;88.12;102135.70;1649721;85;20963;-71
2022/01/25 10:45:43;;;;;;;9.73;7.37;;;;;;;4.24;88.12;102133.60;1656124;85;20948;-71
2022/01/25 10:48:31;;;;;;;9.83;7.67;;;;;;;4.24;88.05;102134.01;1651816;85;21523;-70
2022/01/25 10:51:29;;;;;;;10.00;7.67;;;;;;;4.25;88.13;102137.91;1648426;86;20940;-70
2022/01/25 10:54:20;;;;;;;11.55;7.58;;;;;;;4.27;88.09;102136.67;1653280;85;21146;-70
2022/01/25 10:57:04;;;;;;;9.80;7.85;;;;;;;4.28;88.10;102138.42;1652543;86;20971;-71
2022/01/25 11:00:03;;;;;;;10.72;7.17;;;;;;;4.30;88.14;102130.38;1637549;86;20944;-70
2022/01/25 11:02:52;;;;;;;9.53;7.85;;;;;;;4.32;88.12;102133.86;1645692;85;20960;-70
2022/01/25 11:05:41;;;;;;;9.68;7.45;;;;;;;4.30;88.07;102124.84;1649284;86;21571;-72
2022/01/25 11:08:28;;;;;;;13.95;8.20;;;;;;;4.30;88.13;102119.73;1638949;86;20996;-72
2022/01/25 11:11:24;;;;;;;;;;;;;;;4.33;88.18;102124.95;1640668;86;21496;-71
2022/01/25 11:17:12;;;;;;;13.18;8.13;;;;;;;4.40;88.18;102115.78;1647047;85;21510;-71
2022/01/25 11:20:00;;;;;;;8.90;7.85;;;;;;;4.42;88.17;102119.27;1652494;85;21610;-71
2022/01/25 11:22:45;;;;;;;11.48;7.90;;;;;;;4.40;88.08;102115.78;1651923;86;21082;-71
2022/01/25 11:25:31;;;;;;;14.47;8.80;;;;;;;4.36;88.01;102111.37;1646967;86;21120;-71
2022/01/25 11:28:16;;;;;;;13.72;8.28;;;;;;;4.35;88.13;102106.20;1643079;86;22486;-71
2022/01/25 11:31:18;;;;;;;10.80;8.80;;;;;;;4.38;88.20;102104.62;1650057;85;22456;-71
2022/01/25 11:34:11;;;;;;;12.88;8.58;;;;;;;4.42;88.23;102097.50;1649836;85;21079;-71
2022/01/25 11:37:01;;;;;;;11.85;7.90;;;;;;;4.43;88.16;102092.84;1659643;85;21089;-71
2022/01/25 11:39:49;;;;;;;10.45;8.18;;;;;;;4.43;88.11;102089.00;1642668;85;20989;-71
2022/01/25 11:42:37;;;;;;;11.83;7.95;;;;;;;4.41;88.07;102088.48;1631903;86;21107;-70
2022/01/25 11:45:23;;;;;;;;;;;;;;;4.44;88.16;102086.89;1634328;84;21064;-71
2022/01/25 11:48:07;;;;;;;12.15;7.12;;;;;;;4.46;88.20;102086.95;1644514;85;20615;-71
2022/01/25 11:50:52;;;;;;;9.33;7.40;;;;;;;4.48;88.18;102090.42;1646010;86;21599;-71
2022/01/25 11:53:41;;;;;;;9.83;7.75;;;;;;;4.47;88.12;102092.12;1631131;87;21108;-70
2022/01/25 11:56:26;;;;;;;10.75;7.90;;;;;;;4.46;88.14;102090.78;1659523;84;21070;-71
2022/01/25 11:59:14;;;;;;;12.47;7.67;;;;;;;4.48;88.19;102095.55;1640628;86;21570;-71
2022/01/25 12:01:59;;;;;;;9.85;7.92;;;;;;;4.48;88.17;102095.55;1636266;85;22474;-71
2022/01/25 12:04:45;;;;;;;10.40;7.50;;;;;;;4.46;88.14;102096.78;1640819;85;21576;-72
2022/01/25 12:07:38;;;;;;;10.28;7.53;;;;;;;4.46;88.15;102098.47;1640332;85;21097;-72
2022/01/25 12:10:31;;;;;;;;;;;;;;;4.44;88.17;102098.42;1641192;86;21716;-72
2022/01/25 12:13:21;;;;;;;10.20;7.20;;;;;;;4.45;88.19;102100.57;1657197;85;20197;-70
2022/01/25 12:16:27;;;;;;;12.95;7.92;;;;;;;4.45;88.17;102093.76;1652609;85;21030;-70
2022/01/25 12:19:16;;;;;;;10.35;7.83;;;;;;;4.43;88.18;102090.27;1642947;85;21065;-70
2022/01/25 12:22:12;;;;;;;10.15;7.83;;;;;;;4.43;88.23;102082.59;1657734;86;20938;-70
2022/01/25 12:25:12;;;;;;;10.00;7.83;;;;;;;4.45;88.24;102078.39;1640353;85;20985;-70
2022/01/25 12:28:11;;;;;;;10.48;7.22;;;;;;;4.46;88.23;102077.98;1656120;84;20915;-70
2022/01/25 12:30:51;;;;;;;9.23;7.45;;;;;;;4.46;88.22;102082.69;1634994;87;21077;-70
2022/01/25 12:33:37;;;;;;;10.60;8.43;;;;;;;4.47;88.25;102080.59;1659695;84;21046;-70
2022/01/25 12:36:35;;;;;;;9.95;7.47;;;;;;;4.51;88.31;102077.31;1634187;85;21730;-70
2022/01/25 12:39:25;;;;;;;12.28;8.03;;;;;;;4.54;88.29;102072.70;1634274;87;21112;-71
2022/01/25 12:42:10;;;;;;;12.10;8.15;;;;;;;4.55;88.21;102068.91;1657404;86;21382;-70
2022/01/25 12:44:54;;;;;;;12.18;8.00;;;;;;;4.54;88.23;102065.88;1638922;87;21454;-70
2022/01/25 12:47:39;;;;;;;10.10;8.28;;;;;;;4.55;88.26;102062.50;1633002;85;21908;-71
2022/01/25 12:50:25;;;;;;;12.88;8.10;;;;;;;4.55;88.21;102059.94;1654935;86;20942;-70
2022/01/25 12:53:13;;;;;;;;;;;;;;;4.54;88.22;102054.35;1641631;87;20937;-70
2022/01/25 12:56:03;;;;;;;11.48;8.03;;;;;;;4.56;88.27;102050.15;1643207;87;20142;-70
2022/01/25 12:58:55;;;;;;;8.43;7.40;;;;;;;4.59;88.30;102042.97;1658015;84;21030;-70
2022/01/25 13:01:42;;;;;;;9.60;7.37;;;;;;;4.63;88.35;102043.12;1636536;87;20953;-70
2022/01/25 13:04:29;;;;;;;10.13;7.67;;;;;;;4.64;88.25;102036.30;1635921;87;21419;-71
2022/01/25 13:07:15;;;;;;;9.13;6.90;;;;;;;4.67;88.30;102035.53;1631940;86;21076;-70
2022/01/25 13:10:00;;;;;;;9.60;7.37;;;;;;;4.69;88.27;102035.12;1630360;87;21062;-72
2022/01/25 13:12:57;;;;;;;8.30;7.22;;;;;;;4.70;88.27;102039.43;1653167;85;21597;-72
2022/01/25 13:18:19;;;;;;;8.83;6.10;;;;;;;4.68;88.24;102041.95;1620783;87;21723;-72
2022/01/25 13:21:08;;;;;;;6.80;6.10;;;;;;;4.65;88.19;102042.75;1652812;86;21627;-72
2022/01/25 13:23:54;;;;;;;6.42;5.80;;;;;;;4.66;88.20;102044.91;1626526;86;21088;-72
2022/01/25 13:27:02;;;;;;;7.95;6.30;;;;;;;4.64;88.18;102040.14;1639011;86;21101;-72
2022/01/25 13:32:57;;;;;;;7.53;6.60;;;;;;;4.64;88.22;102037.58;1627434;87;21068;-71
2022/01/25 13:35:47;;;;;;;6.05;5.45;;;;;;;4.62;88.24;102034.97;1640052;87;20989;-71
2022/01/25 13:38:32;;;;;;;7.35;6.25;;;;;;;4.60;88.20;102040.87;1665641;84;20991;-72
2022/01/25 13:41:27;;;;;;;7.47;5.78;;;;;;;4.58;88.18;102042.10;1661602;84;21372;-70
2022/01/25 13:46:53;;;;;;;7.92;6.55;;;;;;;4.56;88.23;102030.94;1665715;82;21743;-69
2022/01/25 13:49:38;;;;;;;7.00;6.40;;;;;;;4.56;88.22;102032.22;1665409;84;20939;-69
2022/01/25 13:52:22;;;;;;;6.70;6.03;;;;;;;4.57;88.24;102030.53;1668937;85;21567;-69
2022/01/25 13:55:09;;;;;;;9.40;6.17;;;;;;;4.55;88.19;102032.17;1667050;85;21154;-71
2022/01/25 13:57:54;;;;;;;34.20;14.68;;;;;;;4.55;88.25;102030.48;1666850;85;21146;-72
2022/01/25 14:00:39;;;;;;;6.83;6.12;;;;;;;4.54;88.21;102030.02;1667199;85;21085;-71
2022/01/25 14:03:31;;;;;;;6.72;5.40;;;;;;;4.52;88.15;102037.20;1662518;85;21082;-73
2022/01/25 14:06:27;;;;;;;6.78;6.08;;;;;;;4.49;88.16;102040.53;1642302;85;21018;-73
2022/01/25 14:09:21;;;;;;;9.65;6.25;;;;;;;4.48;88.22;102039.20;1670352;84;21126;-72
2022/01/25 14:24:07;;;;;;;6.25;5.72;;;;;;;4.48;88.24;102040.07;1666485;85;21594;-72
2022/01/25 14:26:52;;;;;;;5.92;5.33;;;;;;;4.48;88.29;102033.67;1632926;87;21122;-74
2022/01/25 14:29:40;;;;;;;7.10;5.87;;;;;;;4.45;88.19;102037.41;1650605;85;21132;-74
2022/01/25 14:32:32;;;;;;;6.20;5.60;;;;;;;4.45;88.23;102033.57;1671571;84;21094;-74
2022/01/25 14:35:16;;;;;;;6.53;5.83;;;;;;;4.45;88.27;102033.57;1681508;82;21480;-74
2022/01/25 14:38:01;;;;;;;6.75;5.58;;;;;;;4.46;88.28;102040.44;1630441;86;20955;-74
2022/01/25 14:41:05;;;;;;;8.15;6.58;;;;;;;4.45;88.24;102042.53;1650165;84;21477;-74
2022/01/25 14:43:55;;;;;;;10.70;8.45;;;;;;;4.46;88.26;102040.44;1620550;86;20938;-74
2022/01/25 14:46:49;;;;;;;9.98;7.03;;;;;;;4.46;88.26;102036.59;1634303;84;21576;-74
2022/01/25 14:49:40;;;;;;;7.87;6.17;;;;;;;4.47;88.29;102039.61;1631885;86;21427;-74